createdAt,value
2019-02-07T00:00:32.274Z,13.60
2019-02-07T00:01:32.219Z,13.60
2019-02-07T00:02:32.205Z,14.30
2019-02-07T00:03:32.195Z,13.70
2019-02-07T00:04:32.184Z,12.90
2019-02-07T00:05:32.173Z,13.10
2019-02-07T00:06:32.203Z,12.50
2019-02-07T00:07:32.151Z,12.10
2019-02-07T00:08:32.156Z,13.10
2019-02-07T00:09:32.131Z,13.30
2019-02-07T00:10:32.120Z,13.00
2019-02-07T00:11:32.109Z,12.40
2019-02-07T00:12:32.138Z,12.80
2019-02-07T00:13:32.088Z,13.50
2019-02-07T00:14:39.470Z,12.60
2019-02-07T00:15:33.064Z,12.60
2019-02-07T00:16:32.053Z,12.50
2019-02-07T00:17:32.045Z,13.10
2019-02-07T00:18:32.030Z,13.00
2019-02-07T00:19:32.025Z,14.20
2019-02-07T00:20:32.054Z,14.00
2019-02-07T00:21:31.999Z,15.10
2019-02-07T00:22:31.986Z,14.50
2019-02-07T00:23:32.021Z,15.10
2019-02-07T00:24:42.249Z,16.10
2019-02-07T00:25:32.957Z,16.50
2019-02-07T00:26:31.947Z,15.30
2019-02-07T00:27:31.950Z,16.10
2019-02-07T00:28:31.924Z,16.40
2019-02-07T00:29:31.967Z,17.70
2019-02-07T00:30:31.902Z,17.90
2019-02-07T00:31:31.895Z,17.50
2019-02-07T00:32:31.921Z,18.00
2019-02-07T00:33:31.870Z,17.80
2019-02-07T00:34:31.858Z,17.50
2019-02-07T00:35:31.888Z,17.80
2019-02-07T00:36:31.837Z,17.60
2019-02-07T00:37:31.826Z,18.70
2019-02-07T00:38:31.816Z,17.80
2019-02-07T00:39:31.804Z,17.80
2019-02-07T00:40:31.835Z,18.50
2019-02-07T00:41:31.826Z,18.80
2019-02-07T00:42:31.771Z,18.00
2019-02-07T00:43:31.767Z,18.90
2019-02-07T00:44:31.793Z,18.80
2019-02-07T00:45:31.738Z,19.00
2019-02-07T00:46:31.736Z,18.30
2019-02-07T00:47:31.718Z,19.80
2019-02-07T00:48:31.706Z,18.60
2019-02-07T00:49:31.700Z,18.00
2019-02-07T00:50:31.732Z,17.50
2019-02-07T00:51:31.675Z,17.70
2019-02-07T00:52:31.663Z,17.50
2019-02-07T00:53:31.656Z,18.10
2019-02-07T00:54:31.686Z,16.90
2019-02-07T00:55:31.639Z,17.50
2019-02-07T00:56:31.621Z,16.70
2019-02-07T00:57:31.609Z,16.10
2019-02-07T00:58:31.599Z,16.00
2019-02-07T00:59:31.630Z,16.30
2019-02-07T01:00:31.580Z,16.50
2019-02-07T01:01:31.572Z,15.90
2019-02-07T01:02:31.557Z,16.20
2019-02-07T01:03:31.595Z,16.20
2019-02-07T01:04:31.534Z,15.70
2019-02-07T01:05:31.531Z,16.10
2019-02-07T01:06:31.516Z,15.40
2019-02-07T01:07:31.502Z,15.00
2019-02-07T01:08:31.496Z,15.50
2019-02-07T01:09:31.526Z,15.30
2019-02-07T01:10:31.468Z,15.70
2019-02-07T01:11:31.460Z,15.40
2019-02-07T01:12:31.451Z,15.50
2019-02-07T01:13:31.436Z,16.00
2019-02-07T01:14:31.430Z,15.80
2019-02-07T01:15:31.468Z,15.60
2019-02-07T01:16:31.408Z,15.80
2019-02-07T01:17:31.396Z,15.40
2019-02-07T01:18:31.383Z,15.90
2019-02-07T01:19:31.371Z,14.70
2019-02-07T01:20:31.363Z,14.60
2019-02-07T01:21:31.393Z,15.00
2019-02-07T01:22:31.341Z,14.40
2019-02-07T01:23:31.332Z,14.20
2019-02-07T01:24:31.321Z,14.30
2019-02-07T01:25:31.348Z,13.50
2019-02-07T01:26:31.297Z,13.80
2019-02-07T01:27:31.327Z,14.30
2019-02-07T01:28:31.274Z,13.40
2019-02-07T01:29:31.267Z,13.50
2019-02-07T01:30:31.257Z,14.00
2019-02-07T01:31:31.288Z,13.50
2019-02-07T01:32:31.235Z,14.50
2019-02-07T01:33:31.222Z,13.00
2019-02-07T01:34:31.212Z,13.80
2019-02-07T01:35:31.200Z,14.20
2019-02-07T01:36:31.190Z,13.30
2019-02-07T01:37:31.219Z,13.50
2019-02-07T01:38:31.169Z,12.60
2019-02-07T01:39:31.158Z,13.40
2019-02-07T01:40:31.148Z,13.70
2019-02-07T01:41:31.144Z,13.60
2019-02-07T01:42:31.133Z,13.80
2019-02-07T01:43:31.155Z,14.10
2019-02-07T01:44:31.104Z,14.30
2019-02-07T01:45:31.094Z,13.60
2019-02-07T01:46:31.081Z,13.70
2019-02-07T01:47:31.075Z,13.60
2019-02-07T01:48:31.106Z,13.30
2019-02-07T01:49:31.050Z,13.90
2019-02-07T01:50:31.041Z,13.10
2019-02-07T01:51:31.027Z,14.00
2019-02-07T01:52:31.018Z,12.90
2019-02-07T01:53:31.013Z,14.30
2019-02-07T01:54:31.040Z,14.00
2019-02-07T01:55:30.985Z,13.80
2019-02-07T01:56:30.977Z,13.60
2019-02-07T01:57:30.963Z,13.00
2019-02-07T01:58:30.953Z,13.40
2019-02-07T01:59:30.941Z,12.60
2019-02-07T02:00:30.981Z,14.60
2019-02-07T02:01:30.921Z,14.00
2019-02-07T02:02:30.947Z,13.20
2019-02-07T02:03:31.004Z,13.00
2019-02-07T02:04:30.892Z,13.90
2019-02-07T02:05:30.918Z,13.40
2019-02-07T02:06:30.868Z,13.20
2019-02-07T02:07:30.856Z,14.20
2019-02-07T02:08:30.846Z,13.40
2019-02-07T02:09:30.832Z,13.20
2019-02-07T02:10:30.830Z,13.20
2019-02-07T02:11:30.858Z,13.70
2019-02-07T02:12:30.800Z,13.80
2019-02-07T02:13:30.790Z,12.80
2019-02-07T02:14:30.778Z,12.80
2019-02-07T02:15:30.777Z,13.00
2019-02-07T02:16:30.759Z,13.50
2019-02-07T02:17:30.790Z,13.30
2019-02-07T02:18:30.736Z,13.00
2019-02-07T02:19:30.728Z,13.70
2019-02-07T02:20:30.714Z,13.90
2019-02-07T02:21:30.708Z,13.50
2019-02-07T02:22:30.693Z,13.40
2019-02-07T02:23:30.727Z,13.50
2019-02-07T02:24:30.673Z,12.20
2019-02-07T02:25:30.673Z,12.90
2019-02-07T02:26:30.650Z,12.70
2019-02-07T02:27:30.642Z,13.00
2019-02-07T02:28:30.654Z,13.50
2019-02-07T02:29:30.661Z,12.10
2019-02-07T02:30:30.654Z,12.70
2019-02-07T02:31:30.596Z,13.50
2019-02-07T02:32:30.587Z,11.90
2019-02-07T02:33:30.575Z,12.30
2019-02-07T02:34:30.564Z,12.40
2019-02-07T02:35:30.600Z,12.50
2019-02-07T02:36:30.543Z,13.00
2019-02-07T02:37:30.531Z,12.40
2019-02-07T02:38:30.520Z,12.40
2019-02-07T02:39:30.512Z,12.70
2019-02-07T02:40:30.503Z,12.10
2019-02-07T02:41:30.537Z,12.60
2019-02-07T02:42:30.487Z,12.30
2019-02-07T02:43:30.492Z,11.50
2019-02-07T02:44:30.459Z,12.50
2019-02-07T02:45:37.678Z,12.20
2019-02-07T02:46:31.490Z,11.70
2019-02-07T02:47:30.481Z,13.10
2019-02-07T02:48:30.416Z,13.20
2019-02-07T02:49:30.402Z,13.20
2019-02-07T02:50:30.391Z,12.70
2019-02-07T02:51:30.417Z,11.90
2019-02-07T02:52:30.412Z,13.20
2019-02-07T02:53:30.361Z,12.30
2019-02-07T02:54:30.350Z,11.90
2019-02-07T02:55:30.348Z,12.50
2019-02-07T02:56:30.330Z,12.40
2019-02-07T02:57:30.377Z,12.30
2019-02-07T02:58:30.303Z,12.30
2019-02-07T02:59:30.293Z,12.00
2019-02-07T03:00:30.288Z,12.30
2019-02-07T03:01:30.275Z,12.80
2019-02-07T03:02:30.305Z,12.40
2019-02-07T03:03:30.252Z,12.00
2019-02-07T03:04:30.240Z,12.80
2019-02-07T03:05:30.231Z,12.40
2019-02-07T03:06:30.219Z,12.10
2019-02-07T03:07:30.213Z,12.20
2019-02-07T03:08:30.282Z,12.40
2019-02-07T03:09:30.189Z,13.30
2019-02-07T03:10:30.179Z,12.90
2019-02-07T03:11:30.173Z,11.60
2019-02-07T03:12:30.158Z,13.00
2019-02-07T03:13:30.144Z,12.20
2019-02-07T03:14:30.173Z,13.20
2019-02-07T03:15:30.122Z,13.00
2019-02-07T03:16:30.113Z,13.30
2019-02-07T03:17:30.164Z,12.50
2019-02-07T03:18:30.089Z,12.30
2019-02-07T03:19:30.084Z,12.90
2019-02-07T03:20:30.069Z,13.50
2019-02-07T03:21:30.059Z,12.90
2019-02-07T03:22:30.096Z,13.20
2019-02-07T03:23:30.078Z,13.00
2019-02-07T03:24:30.027Z,12.40
2019-02-07T03:25:30.015Z,12.90
2019-02-07T03:26:30.003Z,13.50
2019-02-07T03:27:29.997Z,13.70
2019-02-07T03:28:29.985Z,12.90
2019-02-07T03:29:30.014Z,13.10
2019-02-07T03:30:29.969Z,13.30
2019-02-07T03:31:29.992Z,13.80
2019-02-07T03:32:29.986Z,13.60
2019-02-07T03:33:29.928Z,13.30
2019-02-07T03:34:29.924Z,13.10
2019-02-07T03:35:29.908Z,12.70
2019-02-07T03:36:29.895Z,13.00
2019-02-07T03:37:29.885Z,12.80
2019-02-07T03:38:29.932Z,13.80
2019-02-07T03:39:29.864Z,12.50
2019-02-07T03:40:29.854Z,13.20
2019-02-07T03:41:29.841Z,14.10
2019-02-07T03:42:29.844Z,14.00
2019-02-07T03:43:29.830Z,13.30
2019-02-07T03:44:29.906Z,13.70
2019-02-07T03:45:29.797Z,13.00
2019-02-07T03:46:29.791Z,13.00
2019-02-07T03:47:29.827Z,12.60
2019-02-07T03:48:29.772Z,12.50
2019-02-07T03:49:29.755Z,12.90
2019-02-07T03:50:29.746Z,13.40
2019-02-07T03:51:29.779Z,13.20
2019-02-07T03:52:29.723Z,13.00
2019-02-07T03:53:29.754Z,13.30
2019-02-07T03:54:29.743Z,13.40
2019-02-07T03:55:29.693Z,13.00
2019-02-07T03:56:29.680Z,12.90
2019-02-07T03:57:29.675Z,13.20
2019-02-07T03:58:29.661Z,13.40
2019-02-07T03:59:29.653Z,13.20
2019-02-07T04:00:29.687Z,13.50
2019-02-07T04:01:29.628Z,13.60
2019-02-07T04:02:29.621Z,13.10
2019-02-07T04:03:29.604Z,12.90
2019-02-07T04:04:29.595Z,12.10
2019-02-07T04:05:29.584Z,12.30
2019-02-07T04:06:29.614Z,13.50
2019-02-07T04:07:29.561Z,12.90
2019-02-07T04:08:29.551Z,13.00
2019-02-07T04:09:29.541Z,12.60
2019-02-07T04:10:29.529Z,13.40
2019-02-07T04:11:29.559Z,13.20
2019-02-07T04:12:29.510Z,12.40
2019-02-07T04:13:29.497Z,12.60
2019-02-07T04:14:29.492Z,11.90
2019-02-07T04:15:29.475Z,12.40
2019-02-07T04:16:32.015Z,12.40
2019-02-07T04:17:29.497Z,12.20
2019-02-07T04:18:29.444Z,12.40
2019-02-07T04:19:29.438Z,13.60
2019-02-07T04:20:29.466Z,12.20
2019-02-07T04:21:29.412Z,12.60
2019-02-07T04:22:29.450Z,12.40
2019-02-07T04:23:29.393Z,12.80
2019-02-07T04:24:29.378Z,12.30
2019-02-07T04:25:29.381Z,12.40
2019-02-07T04:26:29.370Z,12.70
2019-02-07T04:27:29.346Z,11.90
2019-02-07T04:28:29.377Z,13.60
2019-02-07T04:29:29.324Z,12.70
2019-02-07T04:30:29.315Z,12.50
2019-02-07T04:31:29.321Z,11.60
2019-02-07T04:32:29.327Z,12.50
2019-02-07T04:33:29.327Z,12.80
2019-02-07T04:34:29.278Z,12.30
2019-02-07T04:35:29.268Z,12.70
2019-02-07T04:36:29.251Z,12.10
2019-02-07T04:37:29.241Z,12.20
2019-02-07T04:38:29.228Z,12.70
2019-02-07T04:39:29.260Z,13.40
2019-02-07T04:40:29.212Z,12.50
2019-02-07T04:41:29.199Z,12.70
2019-02-07T04:42:29.241Z,12.40
2019-02-07T04:43:29.175Z,12.50
2019-02-07T04:44:29.163Z,12.50
2019-02-07T04:45:29.154Z,12.80
2019-02-07T04:46:29.142Z,12.60
2019-02-07T04:47:29.131Z,12.70
2019-02-07T04:48:29.163Z,12.30
2019-02-07T04:49:29.109Z,12.60
2019-02-07T04:50:29.144Z,13.80
2019-02-07T04:51:29.091Z,12.40
2019-02-07T04:52:29.121Z,12.80
2019-02-07T04:53:29.068Z,12.10
2019-02-07T04:54:29.064Z,12.50
2019-02-07T04:55:29.049Z,12.00
2019-02-07T04:56:29.077Z,13.10
2019-02-07T04:57:29.027Z,13.40
2019-02-07T04:58:29.012Z,12.70
2019-02-07T04:59:29.002Z,12.30
2019-02-07T05:00:29.032Z,12.80
2019-02-07T05:01:28.979Z,12.00
2019-02-07T05:02:28.970Z,12.30
2019-02-07T05:03:28.961Z,12.30
2019-02-07T05:04:28.947Z,11.70
2019-02-07T05:05:28.938Z,12.20
2019-02-07T05:06:28.985Z,12.90
2019-02-07T05:07:28.916Z,12.10
2019-02-07T05:08:28.905Z,12.30
2019-02-07T05:09:30.580Z,12.30
2019-02-07T05:10:28.885Z,11.80
2019-02-07T05:11:28.875Z,12.10
2019-02-07T05:12:28.900Z,12.30
2019-02-07T05:13:28.852Z,12.60
2019-02-07T05:14:28.883Z,12.00
2019-02-07T05:15:28.927Z,12.10
2019-02-07T05:16:39.135Z,12.50
2019-02-07T05:17:29.806Z,12.10
2019-02-07T05:18:28.798Z,12.20
2019-02-07T05:19:28.801Z,12.90
2019-02-07T05:20:28.817Z,12.20
2019-02-07T05:21:28.765Z,12.60
2019-02-07T05:22:28.753Z,12.10
2019-02-07T05:23:28.744Z,11.90
2019-02-07T05:24:28.731Z,12.40
2019-02-07T05:25:28.844Z,12.50
2019-02-07T05:26:28.750Z,11.80
2019-02-07T05:27:28.700Z,12.30
2019-02-07T05:28:28.688Z,11.90
2019-02-07T05:29:28.679Z,12.50
2019-02-07T05:30:28.669Z,12.20
2019-02-07T05:31:28.697Z,11.60
2019-02-07T05:32:28.650Z,12.00
2019-02-07T05:33:28.632Z,12.40
2019-02-07T05:34:28.625Z,12.20
2019-02-07T05:35:28.615Z,13.30
2019-02-07T05:36:28.603Z,12.30
2019-02-07T05:37:28.633Z,12.70
2019-02-07T05:38:28.580Z,12.50
2019-02-07T05:39:28.569Z,12.20
2019-02-07T05:40:28.560Z,12.30
2019-02-07T05:41:28.593Z,12.10
2019-02-07T05:42:28.538Z,12.30
2019-02-07T05:43:28.533Z,11.60
2019-02-07T05:44:28.645Z,11.70
2019-02-07T05:45:28.505Z,12.40
2019-02-07T05:46:28.494Z,12.20
2019-02-07T05:47:28.525Z,12.40
2019-02-07T05:48:28.475Z,12.30
2019-02-07T05:49:28.505Z,12.20
2019-02-07T05:50:28.495Z,12.60
2019-02-07T05:51:28.447Z,12.00
2019-02-07T05:52:28.429Z,12.10
2019-02-07T05:53:28.419Z,12.10
2019-02-07T05:54:28.433Z,12.30
2019-02-07T05:55:28.406Z,11.70
2019-02-07T05:56:28.429Z,12.60
2019-02-07T05:57:28.376Z,12.50
2019-02-07T05:58:28.366Z,12.40
2019-02-07T05:59:28.394Z,11.80
2019-02-07T06:00:28.346Z,12.20
2019-02-07T06:01:28.347Z,12.30
2019-02-07T06:02:28.324Z,12.20
2019-02-07T06:03:28.341Z,12.20
2019-02-07T06:04:28.305Z,11.60
2019-02-07T06:05:28.344Z,12.80
2019-02-07T06:06:28.288Z,12.30
2019-02-07T06:07:28.275Z,12.30
2019-02-07T06:08:28.261Z,12.90
2019-02-07T06:09:28.260Z,12.60
2019-02-07T06:10:28.251Z,11.70
2019-02-07T06:11:28.297Z,13.00
2019-02-07T06:12:28.217Z,13.30
2019-02-07T06:13:28.217Z,13.10
2019-02-07T06:14:28.253Z,13.70
2019-02-07T06:15:28.185Z,13.50
2019-02-07T06:16:28.216Z,12.60
2019-02-07T06:17:28.164Z,13.60
2019-02-07T06:18:28.163Z,14.00
2019-02-07T06:19:28.148Z,13.90
2019-02-07T06:20:28.140Z,13.40
2019-02-07T06:21:28.150Z,13.70
2019-02-07T06:22:28.163Z,13.20
2019-02-07T06:23:28.127Z,13.90
2019-02-07T06:24:28.095Z,13.70
2019-02-07T06:25:28.089Z,13.80
2019-02-07T06:26:28.095Z,13.90
2019-02-07T06:27:28.064Z,14.40
2019-02-07T06:28:28.117Z,13.60
2019-02-07T06:29:28.103Z,14.00
2019-02-07T06:30:28.027Z,14.10
2019-02-07T06:31:28.017Z,14.30
2019-02-07T06:32:28.018Z,14.60
2019-02-07T06:33:28.007Z,14.40
2019-02-07T06:34:29.280Z,14.80
2019-02-07T06:35:28.011Z,14.40
2019-02-07T06:36:27.975Z,15.50
2019-02-07T06:37:27.947Z,15.20
2019-02-07T06:38:28.013Z,14.30
2019-02-07T06:39:28.604Z,14.70
2019-02-07T06:40:27.985Z,15.80
2019-02-07T06:41:27.916Z,15.40
2019-02-07T06:42:27.920Z,14.70
2019-02-07T06:43:27.997Z,14.80
2019-02-07T06:44:27.952Z,14.90
2019-02-07T06:45:27.893Z,15.90
2019-02-07T06:46:27.900Z,15.10
2019-02-07T06:47:27.853Z,14.80
2019-02-07T06:48:27.858Z,15.10
2019-02-07T06:49:27.830Z,15.20
2019-02-07T06:50:27.874Z,16.20
2019-02-07T06:51:27.797Z,15.80
2019-02-07T06:52:27.860Z,16.00
2019-02-07T06:53:27.825Z,15.40
2019-02-07T06:54:27.768Z,17.00
2019-02-07T06:55:27.821Z,17.20
2019-02-07T06:56:27.841Z,16.20
2019-02-07T06:57:27.736Z,16.90
2019-02-07T06:58:27.779Z,17.10
2019-02-07T06:59:27.724Z,17.90
2019-02-07T07:00:27.921Z,17.90
2019-02-07T07:01:27.727Z,17.40
2019-02-07T07:02:27.785Z,17.60
2019-02-07T07:03:27.808Z,17.20
2019-02-07T07:04:27.661Z,17.70
2019-02-07T07:05:27.649Z,17.30
2019-02-07T07:06:27.662Z,16.90
2019-02-07T07:07:27.630Z,18.10
2019-02-07T07:08:27.635Z,17.20
2019-02-07T07:09:27.671Z,19.10
2019-02-07T07:10:27.631Z,19.10
2019-02-07T07:11:27.603Z,17.90
2019-02-07T07:12:27.571Z,17.70
2019-02-07T07:13:27.569Z,18.00
2019-02-07T07:14:27.658Z,18.00
2019-02-07T07:15:27.600Z,17.40
2019-02-07T07:16:27.532Z,17.20
2019-02-07T07:17:27.632Z,17.50
2019-02-07T07:18:27.689Z,18.10
2019-02-07T07:19:27.498Z,18.30
2019-02-07T07:20:27.537Z,18.00
2019-02-07T07:21:27.483Z,17.70
2019-02-07T07:22:27.483Z,19.40
2019-02-07T07:23:27.468Z,18.40
2019-02-07T07:24:27.491Z,18.40
2019-02-07T07:25:27.449Z,19.20
2019-02-07T07:26:27.438Z,18.30
2019-02-07T07:27:27.416Z,18.10
2019-02-07T07:28:27.401Z,18.50
2019-02-07T07:29:27.417Z,18.60
2019-02-07T07:30:27.462Z,18.90
2019-02-07T07:31:27.365Z,17.70
2019-02-07T07:32:27.413Z,17.60
2019-02-07T07:33:27.404Z,18.00
2019-02-07T07:34:27.374Z,17.80
2019-02-07T07:35:27.331Z,18.90
2019-02-07T07:36:27.376Z,17.60
2019-02-07T07:37:27.357Z,17.50
2019-02-07T07:38:27.316Z,18.70
2019-02-07T07:39:27.355Z,18.20
2019-02-07T07:40:27.272Z,18.60
2019-02-07T07:41:27.258Z,18.10
2019-02-07T07:42:27.806Z,17.30
2019-02-07T07:43:27.294Z,19.10
2019-02-07T07:44:27.341Z,18.30
2019-02-07T07:45:27.421Z,18.20
2019-02-07T07:46:27.263Z,18.40
2019-02-07T07:47:35.797Z,17.80
2019-02-07T07:48:28.192Z,19.00
2019-02-07T07:49:27.775Z,18.10
2019-02-07T07:50:27.231Z,18.80
2019-02-07T07:51:27.213Z,17.90
2019-02-07T07:52:27.332Z,17.90
2019-02-07T07:53:27.539Z,18.00
2019-02-07T07:54:27.121Z,18.60
2019-02-07T07:55:27.118Z,17.30
2019-02-07T07:56:27.142Z,17.70
2019-02-07T07:57:27.776Z,18.20
2019-02-07T07:58:27.132Z,17.40
2019-02-07T07:59:27.082Z,18.20
2019-02-07T08:00:27.057Z,17.50
2019-02-07T08:01:29.289Z,15.00
2019-02-07T08:02:27.140Z,15.80
2019-02-07T08:03:29.736Z,14.30
2019-02-07T08:04:27.106Z,13.90
2019-02-07T08:05:27.016Z,11.80
2019-02-07T08:06:27.067Z,11.00
2019-02-07T08:07:27.746Z,9.40
2019-02-07T08:08:26.965Z,8.70
2019-02-07T08:09:27.039Z,8.30
2019-02-07T08:10:26.999Z,8.20
2019-02-07T08:11:26.970Z,7.20
2019-02-07T08:12:26.966Z,7.40
2019-02-07T08:13:26.916Z,7.00
2019-02-07T08:14:26.950Z,6.50
2019-02-07T08:15:26.940Z,6.90
2019-02-07T08:16:26.899Z,6.40
2019-02-07T08:17:27.045Z,6.60
2019-02-07T08:18:26.866Z,6.20
2019-02-07T08:19:26.855Z,6.40
2019-02-07T08:20:26.839Z,5.60
2019-02-07T08:21:26.870Z,6.40
2019-02-07T08:22:26.849Z,5.40
2019-02-07T08:23:26.824Z,5.50
2019-02-07T08:24:26.796Z,6.00
2019-02-07T08:25:26.890Z,5.90
2019-02-07T08:26:26.793Z,6.40
2019-02-07T08:27:26.818Z,5.80
2019-02-07T08:28:26.842Z,5.30
2019-02-07T08:29:26.814Z,5.40
2019-02-07T08:30:36.211Z,6.00
2019-02-07T08:31:27.728Z,5.90
2019-02-07T08:32:26.715Z,5.40
2019-02-07T08:33:26.784Z,5.50
2019-02-07T08:34:26.727Z,5.40
2019-02-07T08:35:26.690Z,5.40
2019-02-07T08:36:26.692Z,5.70
2019-02-07T08:37:26.743Z,5.60
2019-02-07T08:38:26.671Z,5.50
2019-02-07T08:39:26.662Z,5.70
2019-02-07T08:40:26.871Z,5.10
2019-02-07T08:41:26.612Z,5.40
2019-02-07T08:42:26.609Z,6.00
2019-02-07T08:43:26.716Z,4.80
2019-02-07T08:44:26.709Z,5.50
2019-02-07T08:45:26.613Z,6.00
2019-02-07T08:46:27.486Z,5.60
2019-02-07T08:47:26.614Z,6.30
2019-02-07T08:48:26.541Z,5.50
2019-02-07T08:49:26.631Z,5.10
2019-02-07T08:50:26.595Z,5.60
2019-02-07T08:51:26.537Z,5.40
2019-02-07T08:52:26.610Z,5.40
2019-02-07T08:53:26.524Z,4.90
2019-02-07T08:54:26.955Z,5.20
2019-02-07T08:55:26.800Z,5.00
2019-02-07T08:56:27.043Z,5.60
2019-02-07T08:57:27.239Z,5.40
2019-02-07T08:58:26.424Z,4.70
2019-02-07T08:59:26.466Z,5.20
2019-02-07T09:00:26.418Z,5.10
2019-02-07T09:01:26.429Z,5.10
2019-02-07T09:02:26.396Z,5.90
2019-02-07T09:03:26.377Z,5.70
2019-02-07T09:04:26.395Z,5.20
2019-02-07T09:05:26.854Z,5.20
2019-02-07T09:06:26.423Z,5.60
2019-02-07T09:07:26.367Z,5.30
2019-02-07T09:08:28.742Z,5.60
2019-02-07T09:09:27.967Z,5.20
2019-02-07T09:10:26.766Z,5.80
2019-02-07T09:11:36.602Z,5.10
2019-02-07T09:12:30.920Z,5.70
2019-02-07T09:13:27.793Z,5.50
2019-02-07T09:14:26.647Z,6.30
2019-02-07T09:15:26.249Z,5.80
2019-02-07T09:16:27.098Z,5.00
2019-02-07T09:17:27.080Z,5.20
2019-02-07T09:18:26.589Z,5.80
2019-02-07T09:19:27.316Z,5.90
2019-02-07T09:20:26.200Z,5.10
2019-02-07T09:21:26.189Z,6.00
2019-02-07T09:22:27.627Z,6.60
2019-02-07T09:23:28.526Z,6.10
2019-02-07T09:24:26.746Z,6.80
2019-02-07T09:25:26.283Z,6.10
2019-02-07T09:26:26.193Z,6.70
2019-02-07T09:27:26.276Z,6.10
2019-02-07T09:28:26.175Z,5.80
2019-02-07T09:29:26.219Z,8.40
2019-02-07T09:30:26.126Z,8.30
2019-02-07T09:31:26.120Z,7.50
2019-02-07T09:32:26.867Z,8.20
2019-02-07T09:33:26.875Z,7.70
2019-02-07T09:34:27.838Z,7.50
2019-02-07T09:35:27.533Z,7.10
2019-02-07T09:36:26.989Z,6.50
2019-02-07T09:37:27.412Z,7.50
2019-02-07T09:38:26.152Z,8.10
2019-02-07T09:39:25.996Z,8.00
2019-02-07T09:40:26.357Z,7.30
2019-02-07T09:41:26.006Z,8.70
2019-02-07T09:42:25.963Z,7.10
2019-02-07T09:43:25.975Z,7.30
2019-02-07T09:44:25.919Z,7.40
2019-02-07T09:45:26.071Z,7.20
2019-02-07T09:46:26.028Z,7.00
2019-02-07T09:47:25.922Z,7.00
2019-02-07T09:48:26.767Z,6.60
2019-02-07T09:49:26.242Z,7.00
2019-02-07T09:50:26.410Z,7.50
2019-02-07T09:51:27.321Z,7.30
2019-02-07T09:52:26.164Z,7.10
2019-02-07T09:53:26.620Z,8.30
2019-02-07T09:54:27.246Z,6.80
2019-02-07T09:55:25.818Z,7.30
2019-02-07T09:56:25.814Z,6.80
2019-02-07T09:57:25.802Z,6.50
2019-02-07T09:58:25.888Z,6.50
2019-02-07T09:59:25.826Z,7.50
2019-02-07T10:00:25.762Z,6.10
2019-02-07T10:01:25.886Z,6.60
2019-02-07T10:02:25.720Z,6.70
2019-02-07T10:03:25.864Z,6.80
2019-02-07T10:04:25.840Z,6.90
2019-02-07T10:05:25.693Z,7.90
2019-02-07T10:06:25.777Z,6.50
2019-02-07T10:07:25.757Z,6.70
2019-02-07T10:08:25.786Z,6.50
2019-02-07T10:09:25.855Z,7.10
2019-02-07T10:10:26.110Z,6.30
2019-02-07T10:11:26.756Z,5.90
2019-02-07T10:12:25.615Z,6.60
2019-02-07T10:13:26.322Z,6.20
2019-02-07T10:14:25.747Z,5.90
2019-02-07T10:15:25.633Z,6.10
2019-02-07T10:16:25.657Z,6.80
2019-02-07T10:17:25.789Z,6.10
2019-02-07T10:18:32.842Z,5.70
2019-02-07T10:19:26.589Z,5.20
2019-02-07T10:20:25.534Z,5.40
2019-02-07T10:21:25.586Z,6.30
2019-02-07T10:22:25.555Z,5.30
2019-02-07T10:23:25.504Z,5.40
2019-02-07T10:24:25.479Z,6.40
2019-02-07T10:25:25.539Z,5.40
2019-02-07T10:26:26.007Z,5.80
2019-02-07T10:27:26.889Z,5.70
2019-02-07T10:28:27.950Z,5.50
2019-02-07T10:29:25.478Z,6.20
2019-02-07T10:30:25.415Z,5.80
2019-02-07T10:31:26.134Z,6.20
2019-02-07T10:32:25.534Z,6.30
2019-02-07T10:33:25.591Z,5.70
2019-02-07T10:34:25.919Z,5.40
2019-02-07T10:35:25.962Z,5.50
2019-02-07T10:36:26.900Z,5.50
2019-02-07T10:37:27.872Z,5.30
2019-02-07T10:38:27.674Z,5.90
2019-02-07T10:39:27.037Z,5.00
2019-02-07T10:40:25.362Z,5.40
2019-02-07T10:41:26.081Z,5.40
2019-02-07T10:42:25.411Z,5.50
2019-02-07T10:43:25.342Z,5.00
2019-02-07T10:44:26.331Z,4.90
2019-02-07T10:45:25.280Z,4.40
2019-02-07T10:46:25.254Z,4.80
2019-02-07T10:47:25.244Z,5.30
2019-02-07T10:48:25.209Z,5.50
2019-02-07T10:49:25.202Z,4.70
2019-02-07T10:50:25.238Z,5.00
2019-02-07T10:51:25.956Z,6.00
2019-02-07T10:52:26.076Z,6.00
2019-02-07T10:53:25.176Z,5.60
2019-02-07T10:54:25.210Z,4.80
2019-02-07T10:55:25.223Z,5.40
2019-02-07T10:56:25.394Z,6.40
2019-02-07T10:57:25.124Z,5.70
2019-02-07T10:58:25.618Z,5.50
2019-02-07T10:59:25.254Z,4.90
2019-02-07T11:00:26.022Z,5.00
2019-02-07T11:01:25.758Z,4.90
2019-02-07T11:02:26.466Z,5.00
2019-02-07T11:03:25.221Z,5.50
2019-02-07T11:04:25.059Z,5.50
2019-02-07T11:05:25.193Z,5.00
2019-02-07T11:06:25.076Z,4.60
2019-02-07T11:07:25.008Z,5.00
2019-02-07T11:08:24.991Z,6.10
2019-02-07T11:09:24.981Z,4.50
2019-02-07T11:10:25.024Z,4.40
2019-02-07T11:11:25.044Z,5.60
2019-02-07T11:12:25.673Z,4.80
2019-02-07T11:13:25.071Z,4.00
2019-02-07T11:14:24.967Z,4.40
2019-02-07T11:15:24.943Z,4.90
2019-02-07T11:16:24.951Z,4.60
2019-02-07T11:17:24.898Z,4.20
2019-02-07T11:18:24.910Z,4.70
2019-02-07T11:19:24.860Z,4.90
2019-02-07T11:20:24.946Z,4.40
2019-02-07T11:21:24.842Z,4.60
2019-02-07T11:22:24.840Z,5.30
2019-02-07T11:23:24.822Z,4.20
2019-02-07T11:24:24.896Z,4.60
2019-02-07T11:25:24.837Z,3.90
2019-02-07T11:26:24.914Z,4.60
2019-02-07T11:27:24.796Z,4.40
2019-02-07T11:28:24.864Z,4.50
2019-02-07T11:29:24.761Z,4.40
2019-02-07T11:30:24.738Z,4.10
2019-02-07T11:31:24.749Z,4.10
2019-02-07T11:32:24.741Z,3.70
2019-02-07T11:33:24.713Z,3.90
2019-02-07T11:34:24.789Z,3.90
2019-02-07T11:35:24.688Z,4.80
2019-02-07T11:36:24.673Z,5.30
2019-02-07T11:37:24.668Z,5.10
2019-02-07T11:38:24.694Z,4.30
2019-02-07T11:39:24.883Z,3.90
2019-02-07T11:40:24.634Z,3.90
2019-02-07T11:41:24.648Z,4.30
2019-02-07T11:42:24.617Z,3.90
2019-02-07T11:43:24.673Z,3.40
2019-02-07T11:44:24.633Z,3.60
2019-02-07T11:45:24.758Z,3.80
2019-02-07T11:46:24.584Z,3.80
2019-02-07T11:47:24.560Z,3.60
2019-02-07T11:48:24.677Z,4.30
2019-02-07T11:49:24.544Z,4.00
2019-02-07T11:50:24.516Z,3.30
2019-02-07T11:51:24.509Z,3.10
2019-02-07T11:52:24.552Z,3.90
2019-02-07T11:53:24.492Z,3.80
2019-02-07T11:54:24.647Z,3.60
2019-02-07T11:55:25.123Z,4.30
2019-02-07T11:56:24.449Z,3.70
2019-02-07T11:57:24.469Z,3.90
2019-02-07T11:58:24.437Z,4.00
2019-02-07T11:59:24.506Z,4.00
2019-02-07T12:00:24.406Z,3.90
2019-02-07T12:01:24.415Z,3.00
2019-02-07T12:02:24.382Z,3.80
2019-02-07T12:03:24.391Z,4.20
2019-02-07T12:04:24.364Z,4.10
2019-02-07T12:05:24.459Z,3.70
2019-02-07T12:06:24.351Z,3.40
2019-02-07T12:07:24.752Z,3.40
2019-02-07T12:08:24.371Z,3.50
2019-02-07T12:09:24.311Z,3.70
2019-02-07T12:10:24.291Z,3.60
2019-02-07T12:11:24.357Z,3.40
2019-02-07T12:12:24.289Z,4.30
2019-02-07T12:13:24.274Z,3.40
2019-02-07T12:14:24.401Z,3.50
2019-02-07T12:15:24.253Z,3.40
2019-02-07T12:16:24.246Z,4.40
2019-02-07T12:17:24.304Z,3.10
2019-02-07T12:18:24.448Z,3.70
2019-02-07T12:19:24.235Z,3.30
2019-02-07T12:20:24.197Z,3.30
2019-02-07T12:21:24.599Z,3.20
2019-02-07T12:22:24.232Z,3.50
2019-02-07T12:23:24.196Z,3.90
2019-02-07T12:24:24.158Z,4.30
2019-02-07T12:25:24.128Z,3.60
2019-02-07T12:26:24.124Z,4.30
2019-02-07T12:27:24.110Z,3.70
2019-02-07T12:28:24.093Z,3.30
2019-02-07T12:29:24.124Z,3.70
2019-02-07T12:30:24.080Z,3.30
2019-02-07T12:31:24.188Z,3.40
2019-02-07T12:32:24.053Z,3.10
2019-02-07T12:33:24.045Z,3.50
2019-02-07T12:34:24.025Z,3.70
2019-02-07T12:35:24.105Z,3.70
2019-02-07T12:36:24.016Z,3.10
2019-02-07T12:37:24.071Z,3.60
2019-02-07T12:38:23.980Z,3.90
2019-02-07T12:39:24.011Z,3.80
2019-02-07T12:40:24.015Z,3.70
2019-02-07T12:41:23.965Z,3.90
2019-02-07T12:42:23.933Z,3.10
2019-02-07T12:43:23.948Z,3.40
2019-02-07T12:44:23.934Z,3.30
2019-02-07T12:45:23.906Z,3.50
2019-02-07T12:46:23.951Z,2.90
2019-02-07T12:47:23.882Z,3.60
2019-02-07T12:48:23.923Z,3.80
2019-02-07T12:49:29.213Z,4.60
2019-02-07T12:50:24.844Z,3.60
2019-02-07T12:51:23.881Z,2.90
2019-02-07T12:52:23.864Z,4.30
2019-02-07T12:53:23.850Z,3.70
2019-02-07T12:54:23.877Z,3.30
2019-02-07T12:55:26.707Z,3.10
2019-02-07T12:56:23.785Z,2.90
2019-02-07T12:57:23.787Z,3.60
2019-02-07T12:58:23.773Z,3.60
2019-02-07T12:59:23.801Z,3.40
2019-02-07T13:00:23.730Z,3.00
2019-02-07T13:01:23.795Z,4.30
2019-02-07T13:02:23.761Z,3.10